EKHV weather

Haderslev Airport
Haderslev, South Denmark, Denmark

Public forecast

Using degrees Celsius for public forecast. Weather courtesy of forecast.io.

Closest aviation weather report (METAR) to Haderslev Airport

Closest report is Skrydstrup Air Base, 10.0 nm (18.5 km) WSW. Retrieved 2020/02/25 06:20 UTC (5 minutes ago):

EKSP 250620Z 25020KT 9999 -RA FEW019 SCT023CB BKN040 04/02 Q0987 TEMPO 24028G38KT 6000 SHRA BKN012

Closest aviation forecast (TAF) to Haderslev Airport

Closest forecast is Skrydstrup Air Base, 10.0 nm (18.5 km) WSW. Retrieved 2020/02/25 06:30 UTC (0 seconds ago):

TAF EKSP 250524Z 2506/2606 24022KT 9999 SCT012 BKN020 TEMPO 2506/2511 24028G40KT 6000 -SHRA BKN012 SCT020CB TEMPO 2511/2517 24032G50KT 6000 -SHRA SCT020CB BECMG 2517/2520 27018G28KT BECMG 2521/2524 27015KT BECMG 2600/2603 27010KT